sensor_id;sensor_type;location;lat;lon;timestamp;P1;durP1;ratioP1;P2;durP2;ratioP2
27979;SDS011;15315;50.836;4.430;2022-12-31T00:04:02;2.75;;;1.48;;
27979;SDS011;15315;50.836;4.430;2022-12-31T00:14:03;1.10;;;1.00;;
27979;SDS011;15315;50.836;4.430;2022-12-31T00:24:04;2.17;;;1.00;;
27979;SDS011;15315;50.836;4.430;2022-12-31T00:34:05;2.10;;;0.80;;
27979;SDS011;15315;50.836;4.430;2022-12-31T00:44:06;0.52;;;0.52;;
27979;SDS011;15315;50.836;4.430;2022-12-31T00:54:07;1.83;;;0.68;;
27979;SDS011;15315;50.836;4.430;2022-12-31T01:04:12;1.10;;;0.40;;
27979;SDS011;15315;50.836;4.430;2022-12-31T01:14:16;0.20;;;0.20;;
27979;SDS011;15315;50.836;4.430;2022-12-31T01:24:18;1.25;;;0.40;;
27979;SDS011;15315;50.836;4.430;2022-12-31T01:34:18;0.30;;;0.30;;
27979;SDS011;15315;50.836;4.430;2022-12-31T01:54:22;2.15;;;0.50;;
27979;SDS011;15315;50.836;4.430;2022-12-31T02:04:26;1.08;;;0.50;;
27979;SDS011;15315;50.836;4.430;2022-12-31T02:14:29;0.70;;;0.43;;
27979;SDS011;15315;50.836;4.430;2022-12-31T02:24:38;2.67;;;0.70;;
27979;SDS011;15315;50.836;4.430;2022-12-31T02:34:43;3.25;;;0.70;;
27979;SDS011;15315;50.836;4.430;2022-12-31T02:44:49;7.07;;;0.82;;
27979;SDS011;15315;50.836;4.430;2022-12-31T02:54:52;5.97;;;1.10;;
27979;SDS011;15315;50.836;4.430;2022-12-31T03:05:23;3.95;;;0.88;;
27979;SDS011;15315;50.836;4.430;2022-12-31T03:15:28;8.27;;;1.30;;
27979;SDS011;15315;50.836;4.430;2022-12-31T03:25:29;1.60;;;0.75;;
27979;SDS011;15315;50.836;4.430;2022-12-31T03:35:39;2.88;;;0.70;;
27979;SDS011;15315;50.836;4.430;2022-12-31T03:45:40;2.92;;;0.85;;
27979;SDS011;15315;50.836;4.430;2022-12-31T03:55:41;1.90;;;0.80;;
27979;SDS011;15315;50.836;4.430;2022-12-31T04:05:41;5.10;;;0.95;;
27979;SDS011;15315;50.836;4.430;2022-12-31T04:15:42;4.72;;;1.40;;
27979;SDS011;15315;50.836;4.430;2022-12-31T04:25:42;4.63;;;0.90;;
27979;SDS011;15315;50.836;4.430;2022-12-31T04:35:43;1.95;;;0.55;;
27979;SDS011;15315;50.836;4.430;2022-12-31T04:45:43;4.50;;;0.73;;
27979;SDS011;15315;50.836;4.430;2022-12-31T04:55:44;6.65;;;0.82;;
27979;SDS011;15315;50.836;4.430;2022-12-31T05:05:45;4.20;;;0.95;;
27979;SDS011;15315;50.836;4.430;2022-12-31T05:15:45;3.70;;;0.60;;
27979;SDS011;15315;50.836;4.430;2022-12-31T05:25:46;2.47;;;0.68;;
27979;SDS011;15315;50.836;4.430;2022-12-31T05:35:47;4.70;;;0.93;;
27979;SDS011;15315;50.836;4.430;2022-12-31T05:45:47;2.08;;;0.63;;
27979;SDS011;15315;50.836;4.430;2022-12-31T05:55:48;4.57;;;1.17;;
27979;SDS011;15315;50.836;4.430;2022-12-31T06:05:48;7.72;;;1.02;;
27979;SDS011;15315;50.836;4.430;2022-12-31T06:15:49;6.35;;;1.17;;
27979;SDS011;15315;50.836;4.430;2022-12-31T06:25:49;4.88;;;1.27;;
27979;SDS011;15315;50.836;4.430;2022-12-31T06:35:53;6.00;;;1.40;;
27979;SDS011;15315;50.836;4.430;2022-12-31T06:45:58;2.72;;;0.98;;
27979;SDS011;15315;50.836;4.430;2022-12-31T07:06:16;7.60;;;1.40;;
27979;SDS011;15315;50.836;4.430;2022-12-31T07:16:49;5.47;;;1.17;;
27979;SDS011;15315;50.836;4.430;2022-12-31T07:28:15;4.43;;;1.20;;
27979;SDS011;15315;50.836;4.430;2022-12-31T07:48:06;8.57;;;1.88;;
27979;SDS011;15315;50.836;4.430;2022-12-31T07:58:21;3.15;;;1.08;;
27979;SDS011;15315;50.836;4.430;2022-12-31T08:18:45;6.20;;;1.30;;
27979;SDS011;15315;50.836;4.430;2022-12-31T08:28:52;6.13;;;1.80;;
27979;SDS011;15315;50.836;4.430;2022-12-31T08:39:17;9.52;;;2.00;;
27979;SDS011;15315;50.836;4.430;2022-12-31T08:49:28;7.85;;;2.45;;
27979;SDS011;15315;50.836;4.430;2022-12-31T09:19:59;11.15;;;1.63;;
27979;SDS011;15315;50.836;4.430;2022-12-31T09:30:07;9.50;;;1.73;;
27979;SDS011;15315;50.836;4.430;2022-12-31T09:40:15;15.05;;;1.70;;
27979;SDS011;15315;50.836;4.430;2022-12-31T10:01:04;7.80;;;2.28;;
27979;SDS011;15315;50.836;4.430;2022-12-31T10:32:07;10.43;;;2.08;;
27979;SDS011;15315;50.836;4.430;2022-12-31T12:05:11;11.27;;;2.10;;
27979;SDS011;15315;50.836;4.430;2022-12-31T12:15:21;8.80;;;1.80;;
27979;SDS011;15315;50.836;4.430;2022-12-31T12:25:38;9.05;;;1.95;;
27979;SDS011;15315;50.836;4.430;2022-12-31T12:35:40;9.65;;;2.20;;
27979;SDS011;15315;50.836;4.430;2022-12-31T12:45:42;11.90;;;2.13;;
27979;SDS011;15315;50.836;4.430;2022-12-31T13:16:26;11.73;;;2.88;;
27979;SDS011;15315;50.836;4.430;2022-12-31T13:26:39;9.15;;;2.25;;
27979;SDS011;15315;50.836;4.430;2022-12-31T13:36:52;12.30;;;3.08;;
27979;SDS011;15315;50.836;4.430;2022-12-31T13:47:39;9.07;;;2.37;;
27979;SDS011;15315;50.836;4.430;2022-12-31T14:08:15;7.95;;;2.00;;
27979;SDS011;15315;50.836;4.430;2022-12-31T14:18:20;10.85;;;2.17;;
27979;SDS011;15315;50.836;4.430;2022-12-31T14:28:28;5.90;;;2.00;;
27979;SDS011;15315;50.836;4.430;2022-12-31T14:59:29;8.55;;;2.10;;
27979;SDS011;15315;50.836;4.430;2022-12-31T15:09:43;5.63;;;1.70;;
27979;SDS011;15315;50.836;4.430;2022-12-31T15:40:31;10.13;;;2.50;;
27979;SDS011;15315;50.836;4.430;2022-12-31T15:50:44;9.40;;;2.53;;
27979;SDS011;15315;50.836;4.430;2022-12-31T16:11:18;8.75;;;2.10;;
27979;SDS011;15315;50.836;4.430;2022-12-31T16:21:22;11.57;;;2.80;;
27979;SDS011;15315;50.836;4.430;2022-12-31T16:31:26;8.07;;;2.30;;
27979;SDS011;15315;50.836;4.430;2022-12-31T16:41:28;13.18;;;3.20;;
27979;SDS011;15315;50.836;4.430;2022-12-31T16:51:40;10.45;;;2.42;;
27979;SDS011;15315;50.836;4.430;2022-12-31T17:01:41;7.93;;;2.20;;
27979;SDS011;15315;50.836;4.430;2022-12-31T17:11:52;8.07;;;2.08;;
27979;SDS011;15315;50.836;4.430;2022-12-31T17:21:53;8.70;;;2.67;;
27979;SDS011;15315;50.836;4.430;2022-12-31T17:32:04;10.10;;;2.10;;
27979;SDS011;15315;50.836;4.430;2022-12-31T17:42:06;10.90;;;2.20;;
27979;SDS011;15315;50.836;4.430;2022-12-31T17:52:10;8.90;;;2.35;;
27979;SDS011;15315;50.836;4.430;2022-12-31T18:02:12;9.80;;;2.20;;
27979;SDS011;15315;50.836;4.430;2022-12-31T18:12:13;15.10;;;2.80;;
27979;SDS011;15315;50.836;4.430;2022-12-31T18:22:14;10.73;;;3.97;;
27979;SDS011;15315;50.836;4.430;2022-12-31T18:42:24;17.27;;;3.30;;
27979;SDS011;15315;50.836;4.430;2022-12-31T18:52:26;8.55;;;2.35;;
27979;SDS011;15315;50.836;4.430;2022-12-31T19:02:27;17.17;;;3.33;;
27979;SDS011;15315;50.836;4.430;2022-12-31T19:12:27;12.20;;;2.47;;
27979;SDS011;15315;50.836;4.430;2022-12-31T19:22:27;13.20;;;3.00;;
27979;SDS011;15315;50.836;4.430;2022-12-31T19:32:28;10.23;;;2.65;;
27979;SDS011;15315;50.836;4.430;2022-12-31T19:42:29;11.75;;;3.00;;
27979;SDS011;15315;50.836;4.430;2022-12-31T19:52:29;13.00;;;2.67;;
27979;SDS011;15315;50.836;4.430;2022-12-31T20:02:29;6.85;;;2.30;;
27979;SDS011;15315;50.836;4.430;2022-12-31T20:12:30;11.25;;;2.50;;
27979;SDS011;15315;50.836;4.430;2022-12-31T20:22:31;11.90;;;2.70;;
27979;SDS011;15315;50.836;4.430;2022-12-31T20:32:32;9.40;;;2.58;;
27979;SDS011;15315;50.836;4.430;2022-12-31T20:42:32;5.43;;;2.40;;
27979;SDS011;15315;50.836;4.430;2022-12-31T20:52:35;12.57;;;3.00;;
27979;SDS011;15315;50.836;4.430;2022-12-31T21:02:35;10.13;;;2.53;;
27979;SDS011;15315;50.836;4.430;2022-12-31T21:12:36;10.38;;;2.42;;
27979;SDS011;15315;50.836;4.430;2022-12-31T21:22:43;8.93;;;2.70;;
27979;SDS011;15315;50.836;4.430;2022-12-31T21:32:43;13.68;;;2.58;;
27979;SDS011;15315;50.836;4.430;2022-12-31T21:42:43;19.33;;;3.65;;
27979;SDS011;15315;50.836;4.430;2022-12-31T21:52:44;10.63;;;2.97;;
27979;SDS011;15315;50.836;4.430;2022-12-31T22:02:44;9.90;;;2.60;;
27979;SDS011;15315;50.836;4.430;2022-12-31T22:13:03;10.35;;;2.67;;
27979;SDS011;15315;50.836;4.430;2022-12-31T22:23:03;11.38;;;3.10;;
27979;SDS011;15315;50.836;4.430;2022-12-31T22:33:04;11.55;;;2.63;;
27979;SDS011;15315;50.836;4.430;2022-12-31T22:43:05;20.30;;;3.17;;
27979;SDS011;15315;50.836;4.430;2022-12-31T22:53:05;9.10;;;2.40;;
27979;SDS011;15315;50.836;4.430;2022-12-31T23:03:05;21.65;;;7.75;;
27979;SDS011;15315;50.836;4.430;2022-12-31T23:13:06;17.00;;;3.80;;
27979;SDS011;15315;50.836;4.430;2022-12-31T23:23:26;16.95;;;2.90;;
27979;SDS011;15315;50.836;4.430;2022-12-31T23:33:26;10.55;;;2.40;;
27979;SDS011;15315;50.836;4.430;2022-12-31T23:43:27;9.70;;;2.60;;
27979;SDS011;15315;50.836;4.430;2022-12-31T23:53:27;7.43;;;3.00;;
